Terminal Aerodrome Forecast
Issued by NWS

Home | Current Version | Previous Version | Text Only | Print | Product List | Glossary On
Versions: 1 2 3 4 5 6 7 8 9 10 11 12 13
906
FTUS45 KRIW 052322
TAFBPI
TAF
KBPI 052322Z 0600/0624 18007KT P6SM VCSH SCT070 BKN090
     FM060200 33008KT P6SM SCT080 BKN100
     FM061100 VRB05KT P6SM VCSH SCT040 BKN080
     FM061800 15010G16KT P6SM VCTS SCT025CB BKN050=

USA.gov is the U.S. government's official web portal to all federal, state and local government web resources and services.